createdAt,value
2023-01-05T00:02:50.505Z,0.47
2023-01-05T00:06:52.597Z,0.40
2023-01-05T00:11:13.256Z,3.65
2023-01-05T00:15:33.742Z,1.08
2023-01-05T00:19:54.741Z,0.28
2023-01-05T00:23:56.781Z,0.73
2023-01-05T00:27:58.981Z,0.22
2023-01-05T00:32:01.077Z,0.28
2023-01-05T00:36:09.244Z,0.28
2023-01-05T00:40:15.055Z,1.35
2023-01-05T00:44:17.057Z,0.30
2023-01-05T00:48:19.032Z,0.47
2023-01-05T00:52:21.041Z,0.80
2023-01-05T00:56:24.047Z,1.20
2023-01-05T01:00:26.132Z,1.08
2023-01-05T01:04:30.030Z,2.10
2023-01-05T01:08:32.293Z,1.52
2023-01-05T01:12:34.322Z,1.77
2023-01-05T01:16:36.330Z,2.67
2023-01-05T01:20:39.628Z,1.92
2023-01-05T01:24:41.812Z,3.67
2023-01-05T01:28:47.466Z,4.57
2023-01-05T01:32:49.488Z,2.65
2023-01-05T01:36:51.678Z,3.38
2023-01-05T01:40:58.106Z,1.40
2023-01-05T01:45:05.798Z,2.50
2023-01-05T01:49:11.470Z,2.72
2023-01-05T01:53:20.762Z,2.80
2023-01-05T01:57:25.448Z,5.40
2023-01-05T02:01:27.944Z,3.30
2023-01-05T02:05:33.481Z,3.25
2023-01-05T02:09:35.536Z,3.63
2023-01-05T02:13:51.084Z,3.22
2023-01-05T02:18:22.556Z,6.15
2023-01-05T02:22:45.942Z,4.70
2023-01-05T02:27:18.014Z,4.57
2023-01-05T02:31:34.305Z,4.38
2023-01-05T02:35:52.754Z,6.28
2023-01-05T02:40:21.463Z,9.77
2023-01-05T02:44:29.291Z,6.00
2023-01-05T02:48:32.703Z,8.60
2023-01-05T02:52:42.777Z,9.30
2023-01-05T02:56:52.988Z,6.55
2023-01-05T03:00:59.028Z,9.15
2023-01-05T03:05:08.255Z,6.85
2023-01-05T03:09:10.368Z,7.68
2023-01-05T03:13:31.765Z,5.30
2023-01-05T03:17:40.789Z,8.95
2023-01-05T03:22:04.027Z,10.57
2023-01-05T03:26:31.289Z,8.55
2023-01-05T03:31:06.949Z,7.55
2023-01-05T03:35:31.317Z,7.28
2023-01-05T03:39:38.027Z,7.13
2023-01-05T03:47:44.307Z,9.85
2023-01-05T03:51:46.684Z,8.88
2023-01-05T03:55:48.757Z,7.63
2023-01-05T03:59:50.920Z,8.98
2023-01-05T04:03:53.392Z,7.35
2023-01-05T04:07:55.597Z,9.63
2023-01-05T04:11:57.994Z,9.57
2023-01-05T04:16:00.760Z,9.43
2023-01-05T04:20:05.915Z,8.65
2023-01-05T04:24:11.081Z,10.50
2023-01-05T04:28:15.492Z,8.43
2023-01-05T04:32:18.932Z,9.98
2023-01-05T04:36:21.285Z,6.35
2023-01-05T04:40:24.209Z,7.72
2023-01-05T04:44:29.018Z,10.45
2023-01-05T04:48:32.221Z,7.40
2023-01-05T04:52:35.189Z,8.70
2023-01-05T04:56:38.156Z,10.15
2023-01-05T05:00:41.923Z,11.27
2023-01-05T05:04:44.114Z,13.57
2023-01-05T05:08:46.494Z,13.77
2023-01-05T05:12:48.593Z,9.50
2023-01-05T05:16:50.765Z,9.52
2023-01-05T05:20:53.333Z,7.57
2023-01-05T05:24:59.969Z,9.70
2023-01-05T05:29:02.253Z,8.48
2023-01-05T05:33:04.398Z,7.10
2023-01-05T05:37:06.724Z,10.35
2023-01-05T05:41:08.794Z,5.30
2023-01-05T05:45:11.051Z,7.60
2023-01-05T05:49:13.107Z,6.90
2023-01-05T05:53:15.172Z,7.65
2023-01-05T05:57:17.549Z,7.57
2023-01-05T06:01:19.616Z,10.05
2023-01-05T06:05:21.701Z,8.18
2023-01-05T06:09:24.889Z,9.55
2023-01-05T06:13:27.142Z,9.15
2023-01-05T06:17:29.151Z,9.60
2023-01-05T06:21:31.159Z,6.90
2023-01-05T06:25:33.476Z,9.32
2023-01-05T06:29:35.487Z,8.35
2023-01-05T06:33:37.466Z,7.53
2023-01-05T06:37:39.549Z,6.07
2023-01-05T06:41:41.563Z,9.75
2023-01-05T06:45:44.449Z,9.85
2023-01-05T06:49:46.543Z,7.80
2023-01-05T06:53:48.547Z,9.02
2023-01-05T06:57:53.316Z,7.93
2023-01-05T07:01:59.206Z,5.82
2023-01-05T07:06:01.215Z,9.40
2023-01-05T07:10:04.337Z,7.55
2023-01-05T07:14:06.324Z,9.13
2023-01-05T07:18:08.359Z,9.93
2023-01-05T07:22:10.375Z,7.70
2023-01-05T07:26:12.351Z,11.38
2023-01-05T07:30:14.354Z,8.65
2023-01-05T07:34:16.341Z,6.10
2023-01-05T07:38:18.386Z,7.28
2023-01-05T07:42:20.424Z,12.93
2023-01-05T07:46:24.094Z,11.00
2023-01-05T07:50:26.486Z,6.97
2023-01-05T07:54:28.586Z,8.23
2023-01-05T07:58:31.077Z,7.25
2023-01-05T08:02:36.002Z,11.13
2023-01-05T08:06:38.383Z,10.55
2023-01-05T08:10:42.307Z,8.18
2023-01-05T08:14:44.299Z,8.90
2023-01-05T08:18:46.376Z,8.40
2023-01-05T08:22:52.746Z,9.38
2023-01-05T08:26:54.896Z,12.63
2023-01-05T08:31:08.219Z,14.02
2023-01-05T08:35:10.297Z,10.07
2023-01-05T08:39:12.802Z,10.57
2023-01-05T08:43:14.822Z,10.25
2023-01-05T08:47:18.359Z,6.85
2023-01-05T08:51:21.340Z,11.50
2023-01-05T08:55:23.344Z,10.52
2023-01-05T08:59:25.381Z,8.20
2023-01-05T09:03:27.390Z,9.85
2023-01-05T09:07:29.523Z,9.02
2023-01-05T09:11:31.543Z,11.82
2023-01-05T09:15:35.027Z,7.15
2023-01-05T09:19:37.376Z,9.07
2023-01-05T09:23:40.783Z,8.13
2023-01-05T09:27:42.909Z,12.75
2023-01-05T09:31:45.295Z,7.68
2023-01-05T09:35:56.980Z,10.20
2023-01-05T09:39:59.047Z,6.68
2023-01-05T09:44:05.140Z,14.43
2023-01-05T09:48:14.357Z,9.77
2023-01-05T09:52:21.224Z,9.68
2023-01-05T09:57:07.551Z,6.10
2023-01-05T10:01:16.063Z,12.50
2023-01-05T10:05:19.261Z,10.95
2023-01-05T10:09:28.239Z,10.27
2023-01-05T10:13:33.236Z,10.00
2023-01-05T10:17:41.793Z,10.82
2023-01-05T10:22:14.328Z,9.75
2023-01-05T10:26:45.219Z,13.23
2023-01-05T10:31:06.472Z,10.67
2023-01-05T10:35:59.566Z,7.90
2023-01-05T10:40:06.056Z,12.30
2023-01-05T10:44:38.840Z,9.27
2023-01-05T10:48:40.966Z,10.20
2023-01-05T10:52:45.039Z,8.48
2023-01-05T10:56:47.034Z,11.57
2023-01-05T11:00:50.095Z,9.73
2023-01-05T11:04:53.378Z,9.70
2023-01-05T11:08:55.964Z,11.75
2023-01-05T11:13:04.571Z,10.30
2023-01-05T11:17:11.669Z,13.90
2023-01-05T11:21:19.831Z,9.35
2023-01-05T11:25:33.108Z,10.77
2023-01-05T11:29:35.219Z,12.65
2023-01-05T11:33:39.601Z,11.77
2023-01-05T11:37:44.969Z,12.65
2023-01-05T11:41:47.182Z,8.90
2023-01-05T11:46:02.589Z,11.57
2023-01-05T11:50:13.688Z,10.48
2023-01-05T11:54:31.916Z,11.95
2023-01-05T11:58:48.401Z,9.65
2023-01-05T12:03:14.889Z,11.68
2023-01-05T12:07:32.248Z,9.52
2023-01-05T12:12:13.288Z,8.32
2023-01-05T12:16:24.465Z,11.45
2023-01-05T12:20:37.346Z,11.27
2023-01-05T12:24:48.852Z,10.50
2023-01-05T12:29:50.526Z,12.23
2023-01-05T12:34:20.517Z,10.50
2023-01-05T12:39:09.794Z,12.45
2023-01-05T12:43:27.090Z,10.50
2023-01-05T12:48:13.264Z,8.65
2023-01-05T12:52:34.221Z,12.65
2023-01-05T12:56:50.113Z,10.15
2023-01-05T13:00:57.402Z,11.38
2023-01-05T13:09:20.994Z,8.93
2023-01-05T13:13:34.367Z,8.77
2023-01-05T13:17:41.226Z,9.07
2023-01-05T13:21:46.403Z,7.03
2023-01-05T13:25:56.082Z,7.22
2023-01-05T13:30:00.904Z,7.03
2023-01-05T13:34:20.923Z,7.20
2023-01-05T13:38:55.543Z,5.97
2023-01-05T13:43:16.454Z,8.98
2023-01-05T13:47:28.019Z,5.53
2023-01-05T13:51:39.874Z,9.05
2023-01-05T13:56:02.195Z,8.20
2023-01-05T14:00:12.246Z,8.73
2023-01-05T14:04:26.450Z,8.98
2023-01-05T14:08:37.977Z,12.63
2023-01-05T14:12:46.887Z,9.27
2023-01-05T14:16:49.594Z,8.65
2023-01-05T14:20:53.742Z,7.55
2023-01-05T14:24:57.430Z,6.43
2023-01-05T14:28:59.506Z,7.65
2023-01-05T14:33:06.209Z,7.05
2023-01-05T14:37:22.716Z,5.75
2023-01-05T14:41:27.740Z,5.32
2023-01-05T14:45:32.629Z,5.85
2023-01-05T14:49:39.109Z,26.98
2023-01-05T14:53:44.574Z,7.63
2023-01-05T14:57:55.289Z,4.40
2023-01-05T15:02:13.069Z,8.02
2023-01-05T15:10:29.133Z,7.45
2023-01-05T15:14:52.926Z,9.00
2023-01-05T15:19:04.194Z,9.13
2023-01-05T15:23:24.276Z,8.48
2023-01-05T15:27:45.251Z,7.55
2023-01-05T15:31:55.146Z,5.05
2023-01-05T15:36:02.450Z,8.30
2023-01-05T15:44:33.857Z,9.27
2023-01-05T15:48:45.297Z,11.85
2023-01-05T15:52:59.588Z,12.43
2023-01-05T15:57:02.488Z,12.73
2023-01-05T16:01:16.116Z,10.73
2023-01-05T16:05:21.389Z,11.27
2023-01-05T16:09:38.794Z,10.57
2023-01-05T16:13:45.733Z,17.63
2023-01-05T16:17:50.590Z,12.05
2023-01-05T16:22:12.046Z,12.95
2023-01-05T16:26:17.496Z,12.55
2023-01-05T16:30:39.416Z,15.45
2023-01-05T16:34:41.517Z,12.85
2023-01-05T16:38:43.551Z,11.73
2023-01-05T16:42:50.382Z,14.43
2023-01-05T16:47:05.702Z,12.52
2023-01-05T16:51:09.543Z,14.20
2023-01-05T16:55:31.787Z,12.13
2023-01-05T16:59:39.970Z,21.98
2023-01-05T17:03:43.015Z,14.07
2023-01-05T17:07:46.922Z,15.25
2023-01-05T17:11:49.259Z,12.27
2023-01-05T17:15:53.030Z,14.23
2023-01-05T17:19:55.493Z,13.90
2023-01-05T17:23:59.960Z,16.10
2023-01-05T17:28:02.072Z,14.55
2023-01-05T17:32:04.487Z,14.95
2023-01-05T17:36:07.047Z,14.25
2023-01-05T17:40:16.690Z,12.82
2023-01-05T17:44:18.801Z,15.13
2023-01-05T17:48:20.873Z,12.80
2023-01-05T17:52:23.032Z,17.27
2023-01-05T17:56:26.007Z,12.27
2023-01-05T18:00:33.120Z,10.65
2023-01-05T18:04:35.234Z,12.32
2023-01-05T18:08:38.180Z,16.67
2023-01-05T18:16:46.297Z,18.40
2023-01-05T18:20:51.385Z,9.27
2023-01-05T18:24:53.688Z,11.73
2023-01-05T18:28:55.711Z,17.42
2023-01-05T18:32:58.379Z,14.27
2023-01-05T18:37:05.784Z,17.33
2023-01-05T18:41:09.343Z,24.77
2023-01-05T18:45:19.089Z,21.42
2023-01-05T18:49:21.994Z,18.75
2023-01-05T18:53:24.257Z,12.27
2023-01-05T18:57:26.537Z,18.13
2023-01-05T19:01:28.590Z,12.50
2023-01-05T19:05:30.647Z,12.75
2023-01-05T19:09:32.764Z,13.95
2023-01-05T19:13:34.808Z,15.18
2023-01-05T19:17:36.902Z,13.15
2023-01-05T19:21:41.136Z,11.07
2023-01-05T19:25:43.172Z,12.88
2023-01-05T19:29:45.253Z,10.25
2023-01-05T19:33:47.239Z,8.40
2023-01-05T19:37:49.340Z,11.27
2023-01-05T19:41:51.505Z,6.97
2023-01-05T19:45:58.282Z,8.55
2023-01-05T19:50:00.354Z,9.13
2023-01-05T19:54:04.720Z,6.53
2023-01-05T19:58:06.703Z,14.20
2023-01-05T20:02:10.017Z,4.38
2023-01-05T20:06:16.400Z,6.22
2023-01-05T20:10:18.447Z,4.17
2023-01-05T20:14:21.785Z,2.28
2023-01-05T20:18:23.748Z,2.33
2023-01-05T20:22:25.772Z,3.00
2023-01-05T20:26:30.369Z,4.03
2023-01-05T20:30:34.263Z,3.58
2023-01-05T20:34:38.806Z,3.38
2023-01-05T20:38:40.803Z,3.72
2023-01-05T20:42:42.810Z,1.98
2023-01-05T20:46:47.039Z,4.00
2023-01-05T20:50:49.081Z,2.22
2023-01-05T20:54:52.467Z,2.70
2023-01-05T20:58:54.797Z,2.80
2023-01-05T21:02:56.931Z,2.85
2023-01-05T21:07:01.045Z,3.15
2023-01-05T21:11:04.448Z,4.15
2023-01-05T21:15:07.152Z,3.47
2023-01-05T21:19:11.480Z,4.93
2023-01-05T21:23:13.492Z,4.70
2023-01-05T21:27:15.525Z,2.45
2023-01-05T21:31:20.142Z,2.65
2023-01-05T21:35:22.171Z,2.40
2023-01-05T21:39:28.180Z,2.53
2023-01-05T21:43:32.863Z,1.83
2023-01-05T21:47:35.850Z,1.08
2023-01-05T21:51:57.012Z,2.40
2023-01-05T21:56:18.021Z,1.38
2023-01-05T22:00:20.115Z,1.70
2023-01-05T22:04:22.334Z,2.92
2023-01-05T22:08:24.869Z,2.20
2023-01-05T22:12:26.892Z,2.05
2023-01-05T22:16:29.108Z,1.88
2023-01-05T22:20:31.119Z,1.92
2023-01-05T22:24:33.311Z,4.13
2023-01-05T22:28:36.695Z,2.53
2023-01-05T22:32:38.717Z,3.15
2023-01-05T22:36:40.749Z,1.50
2023-01-05T22:40:42.801Z,2.03
2023-01-05T22:44:44.768Z,2.90
2023-01-05T22:48:48.519Z,2.30
2023-01-05T22:52:50.561Z,3.30
2023-01-05T22:56:52.571Z,1.83
2023-01-05T23:00:54.741Z,1.13
2023-01-05T23:04:56.800Z,2.88
2023-01-05T23:08:59.138Z,2.58
2023-01-05T23:13:01.337Z,5.03
2023-01-05T23:17:03.417Z,2.85
2023-01-05T23:21:08.550Z,4.18
2023-01-05T23:25:11.059Z,2.72
2023-01-05T23:29:13.081Z,2.65
2023-01-05T23:33:16.575Z,1.95
2023-01-05T23:37:18.589Z,1.98
2023-01-05T23:41:20.755Z,1.77
2023-01-05T23:45:22.778Z,2.97
2023-01-05T23:49:24.814Z,3.50
2023-01-05T23:53:26.938Z,3.15
2023-01-05T23:57:30.386Z,3.42
